createdAt,value
2018-04-07T00:00:03.448Z,100193.55
2018-04-07T00:02:31.034Z,100185.14
2018-04-07T00:04:58.674Z,100194.19
2018-04-07T00:07:26.308Z,100202.01
2018-04-07T00:09:53.870Z,100195.56
2018-04-07T00:12:21.463Z,100199.80
2018-04-07T00:14:49.035Z,100203.76
2018-04-07T00:17:16.670Z,100205.39
2018-04-07T00:19:44.289Z,100208.86
2018-04-07T00:22:11.850Z,100209.61
2018-04-07T00:24:39.417Z,100205.92
2018-04-07T00:27:07.070Z,100201.77
2018-04-07T00:29:34.673Z,100208.42
2018-04-07T00:32:02.312Z,100219.60
2018-04-07T00:34:29.954Z,100214.38
2018-04-07T00:36:57.518Z,100213.87
2018-04-07T00:39:25.091Z,100209.69
2018-04-07T00:41:52.682Z,100217.20
2018-04-07T00:44:20.358Z,100214.03
2018-04-07T00:46:47.945Z,100220.42
2018-04-07T00:49:15.528Z,100224.62
2018-04-07T00:51:43.101Z,100225.67
2018-04-07T00:54:10.662Z,100230.28
2018-04-07T00:56:38.402Z,100229.95
2018-04-07T00:59:06.018Z,100240.74
2018-04-07T01:01:33.599Z,100234.21
2018-04-07T01:04:01.154Z,100237.52
2018-04-07T01:06:28.713Z,100238.72
2018-04-07T01:08:56.394Z,100236.98
2018-04-07T01:11:23.957Z,100240.13
2018-04-07T01:13:51.532Z,100235.94
2018-04-07T01:16:19.106Z,100240.69
2018-04-07T01:18:46.670Z,100243.45
2018-04-07T01:21:14.320Z,100244.77
2018-04-07T01:23:41.943Z,100250.42
2018-04-07T01:26:09.510Z,100252.95
2018-04-07T01:28:37.086Z,100253.19
2018-04-07T01:31:04.668Z,100251.09
2018-04-07T01:33:32.310Z,100250.47
2018-04-07T01:35:59.871Z,100247.79
2018-04-07T01:38:27.445Z,100246.69
2018-04-07T01:40:55.078Z,100247.28
2018-04-07T01:43:22.658Z,100251.30
2018-04-07T01:45:50.294Z,100261.29
2018-04-07T01:48:17.865Z,100255.80
2018-04-07T01:50:45.497Z,100259.41
2018-04-07T01:53:13.078Z,100256.73
2018-04-07T01:55:40.641Z,100256.53
2018-04-07T01:58:08.360Z,100258.15
2018-04-07T02:00:35.961Z,100262.66
2018-04-07T02:03:03.537Z,100263.64
2018-04-07T02:05:31.110Z,100265.34
2018-04-07T02:07:58.691Z,100269.22
2018-04-07T02:10:26.339Z,100274.69
2018-04-07T02:12:53.895Z,100276.30
2018-04-07T02:15:21.455Z,100273.99
2018-04-07T02:17:49.037Z,100275.28
2018-04-07T02:20:17.486Z,100284.64
2018-04-07T02:22:45.132Z,100275.25
2018-04-07T02:25:12.715Z,100284.19
2018-04-07T02:27:40.344Z,100291.73
2018-04-07T02:30:07.945Z,100293.20
2018-04-07T02:32:35.532Z,100293.91
2018-04-07T02:35:03.207Z,100295.63
2018-04-07T02:37:30.873Z,100302.02
2018-04-07T02:39:58.446Z,100301.59
2018-04-07T02:42:26.103Z,100301.42
2018-04-07T02:44:53.698Z,100300.61
2018-04-07T02:47:21.350Z,100304.63
2018-04-07T02:49:48.920Z,100302.38
2018-04-07T02:52:16.533Z,100301.69
2018-04-07T02:54:44.110Z,100299.16
2018-04-07T02:57:11.733Z,100301.80
2018-04-07T02:59:39.351Z,100304.28
2018-04-07T03:02:06.998Z,100297.87
2018-04-07T03:04:34.588Z,100306.58
2018-04-07T03:07:02.236Z,100303.22
2018-04-07T03:09:29.813Z,100298.87
2018-04-07T03:11:57.437Z,100306.64
2018-04-07T03:14:25.026Z,100310.07
2018-04-07T03:16:52.685Z,100309.04
2018-04-07T03:19:20.300Z,100315.34
2018-04-07T03:21:48.214Z,100315.00
2018-04-07T03:24:15.832Z,100324.19
2018-04-07T03:26:43.426Z,100327.86
2018-04-07T03:29:11.110Z,100328.37
2018-04-07T03:31:38.752Z,100335.48
2018-04-07T03:34:06.334Z,100333.30
2018-04-07T03:36:33.982Z,100342.98
2018-04-07T03:39:01.567Z,100355.89
2018-04-07T03:41:29.138Z,100360.54
2018-04-07T03:43:56.806Z,100362.73
2018-04-07T03:46:24.463Z,100364.84
2018-04-07T03:48:52.111Z,100369.30
2018-04-07T03:51:19.721Z,100378.56
2018-04-07T03:53:47.302Z,100382.48
2018-04-07T03:56:14.958Z,100383.16
2018-04-07T03:58:42.553Z,100385.55
2018-04-07T04:01:10.255Z,100390.27
2018-04-07T04:03:37.880Z,100392.70
2018-04-07T04:06:05.510Z,100398.05
2018-04-07T04:08:33.198Z,100408.01
2018-04-07T04:11:00.785Z,100410.27
2018-04-07T04:13:28.352Z,100415.77
2018-04-07T04:15:55.933Z,100413.80
2018-04-07T04:18:23.526Z,100415.91
2018-04-07T04:20:51.173Z,100416.65
2018-04-07T04:23:18.811Z,100428.20
2018-04-07T04:25:46.464Z,100428.75
2018-04-07T04:28:14.095Z,100438.66
2018-04-07T04:30:41.702Z,100436.30
2018-04-07T04:33:09.338Z,100439.64
2018-04-07T04:35:36.911Z,100437.67
2018-04-07T04:38:04.593Z,100449.30
2018-04-07T04:40:32.230Z,100444.33
2018-04-07T04:42:59.802Z,100451.02
2018-04-07T04:45:27.430Z,100458.48
2018-04-07T04:47:55.062Z,100456.66
2018-04-07T04:50:22.731Z,100456.94
2018-04-07T04:52:50.368Z,100464.23
2018-04-07T04:55:17.993Z,100460.64
2018-04-07T04:57:45.632Z,100457.64
2018-04-07T05:00:13.238Z,100453.09
2018-04-07T05:02:40.822Z,100457.48
2018-04-07T05:05:08.386Z,100453.02
2018-04-07T05:07:36.022Z,100457.64
2018-04-07T05:10:03.647Z,100461.63
2018-04-07T05:12:31.273Z,100455.39
2018-04-07T05:14:58.866Z,100452.23
2018-04-07T05:17:26.490Z,100459.10
2018-04-07T05:19:54.155Z,100457.09
2018-04-07T05:22:21.779Z,100451.98
2018-04-07T05:24:49.354Z,100453.92
2018-04-07T05:27:16.918Z,100455.39
2018-04-07T05:29:44.526Z,100458.77
2018-04-07T05:32:12.147Z,100461.98
2018-04-07T05:34:39.706Z,100465.92
2018-04-07T05:37:07.394Z,100468.17
2018-04-07T05:39:35.009Z,100469.94
2018-04-07T05:42:02.596Z,100470.67
2018-04-07T05:44:30.177Z,100466.77
2018-04-07T05:46:57.786Z,100482.25
2018-04-07T05:49:25.377Z,100479.52
2018-04-07T05:51:52.945Z,100481.52
2018-04-07T05:54:20.580Z,100485.84
2018-04-07T05:56:48.186Z,100485.43
2018-04-07T05:59:15.761Z,100487.67
2018-04-07T06:01:43.330Z,100486.91
2018-04-07T06:04:10.978Z,100491.19
2018-04-07T06:06:38.544Z,100488.50
2018-04-07T06:09:06.867Z,100491.84
2018-04-07T06:11:34.445Z,100495.22
2018-04-07T06:14:02.010Z,100499.53
2018-04-07T06:16:29.638Z,100500.68
2018-04-07T06:18:57.238Z,100501.22
2018-04-07T06:21:24.889Z,100500.49
2018-04-07T06:23:52.514Z,100498.27
2018-04-07T06:26:20.138Z,100504.14
2018-04-07T06:28:47.760Z,100495.97
2018-04-07T06:31:15.374Z,100503.11
2018-04-07T06:33:42.958Z,100504.92
2018-04-07T06:36:10.523Z,100504.94
2018-04-07T06:38:38.220Z,100501.04
2018-04-07T06:41:05.781Z,100499.90
2018-04-07T06:43:33.342Z,100505.17
2018-04-07T06:46:00.912Z,100503.65
2018-04-07T06:48:28.534Z,100501.11
2018-04-07T06:50:56.104Z,100504.83
2018-04-07T06:53:23.671Z,100511.13
2018-04-07T06:55:51.360Z,100519.09
2018-04-07T06:58:18.933Z,100527.06
2018-04-07T07:00:46.500Z,100514.81
2018-04-07T07:03:14.082Z,100530.77
2018-04-07T07:05:41.627Z,100533.72
2018-04-07T07:08:09.198Z,100542.05
2018-04-07T07:10:36.758Z,100539.70
2018-04-07T07:13:04.424Z,100544.58
2018-04-07T07:15:32.048Z,100544.30
2018-04-07T07:17:59.658Z,100551.59
2018-04-07T07:20:27.287Z,100558.02
2018-04-07T07:22:54.858Z,100554.60
2018-04-07T07:25:22.457Z,100559.56
2018-04-07T07:27:50.083Z,100560.96
2018-04-07T07:30:17.694Z,100565.98
2018-04-07T07:32:45.254Z,100565.88
2018-04-07T07:35:12.818Z,100570.66
2018-04-07T07:37:40.387Z,100573.63
2018-04-07T07:40:08.047Z,100579.55
2018-04-07T07:42:35.618Z,100577.88
2018-04-07T07:45:03.229Z,100581.91
2018-04-07T07:47:30.845Z,100581.94
2018-04-07T07:49:58.431Z,100592.13
2018-04-07T07:52:26.050Z,100594.34
2018-04-07T07:54:53.622Z,100590.72
2018-04-07T07:57:21.191Z,100594.52
2018-04-07T07:59:48.766Z,100596.98
2018-04-07T08:02:16.329Z,100590.27
2018-04-07T08:04:43.981Z,100596.59
2018-04-07T08:07:11.562Z,100592.52
2018-04-07T08:09:39.142Z,100599.73
2018-04-07T08:12:06.713Z,100600.47
2018-04-07T08:14:34.273Z,100596.09
2018-04-07T08:17:01.908Z,100597.77
2018-04-07T08:19:29.475Z,100599.59
2018-04-07T08:21:57.155Z,100602.95
2018-04-07T08:24:24.785Z,100596.70
2018-04-07T08:26:52.412Z,100599.98
2018-04-07T08:29:19.990Z,100597.17
2018-04-07T08:31:47.943Z,100602.58
2018-04-07T08:34:15.526Z,100603.88
2018-04-07T08:36:43.154Z,100597.73
2018-04-07T08:39:10.798Z,100597.00
2018-04-07T08:41:38.362Z,100598.98
2018-04-07T08:44:05.926Z,100598.17
2018-04-07T08:46:33.562Z,100596.64
2018-04-07T08:49:01.258Z,100599.94
2018-04-07T08:51:28.840Z,100602.53
2018-04-07T08:53:56.447Z,100594.22
2018-04-07T08:56:24.070Z,100591.48
2018-04-07T08:58:52.149Z,100588.11
2018-04-07T09:01:19.792Z,100587.75
2018-04-07T09:03:47.375Z,100582.73
2018-04-07T09:06:14.950Z,100587.11
2018-04-07T09:08:42.537Z,100586.81
2018-04-07T09:11:10.112Z,100587.09
2018-04-07T09:13:37.730Z,100586.48
2018-04-07T09:16:05.384Z,100575.30
2018-04-07T09:18:32.954Z,100571.83
2018-04-07T09:21:00.530Z,100570.48
2018-04-07T09:23:28.094Z,100573.94
2018-04-07T09:25:55.718Z,100567.73
2018-04-07T09:28:23.360Z,100564.91
2018-04-07T09:30:50.999Z,100567.06
2018-04-07T09:33:18.645Z,100569.91
2018-04-07T09:35:46.228Z,100562.28
2018-04-07T09:38:13.864Z,100560.33
2018-04-07T09:40:41.451Z,100563.08
2018-04-07T09:43:09.102Z,100569.59
2018-04-07T09:45:36.679Z,100566.69
2018-04-07T09:48:04.254Z,100564.78
2018-04-07T09:50:31.877Z,100555.93
2018-04-07T09:52:59.513Z,100555.81
2018-04-07T09:55:27.085Z,100551.94
2018-04-07T09:57:54.643Z,100548.43
2018-04-07T10:00:22.248Z,100550.94
2018-04-07T10:03:04.639Z,100541.28
2018-04-07T10:05:32.200Z,100539.45
2018-04-07T10:07:59.887Z,100542.72
2018-04-07T10:10:27.450Z,100539.13
2018-04-07T10:12:55.028Z,100540.67
2018-04-07T10:15:22.603Z,100540.79
2018-04-07T10:17:50.226Z,100539.00
2018-04-07T10:20:17.829Z,100539.73
2018-04-07T10:22:45.402Z,100533.05
2018-04-07T10:25:12.993Z,100528.09
2018-04-07T10:27:40.570Z,100531.19
2018-04-07T10:30:08.134Z,100528.17
2018-04-07T10:32:35.806Z,100524.02
2018-04-07T10:35:03.371Z,100519.48
2018-04-07T10:37:30.938Z,100523.12
2018-04-07T10:39:58.567Z,100518.64
2018-04-07T10:42:26.126Z,100516.03
2018-04-07T10:44:53.743Z,100510.94
2018-04-07T10:47:21.313Z,100503.53
2018-04-07T10:49:48.947Z,100503.56
2018-04-07T10:52:16.598Z,100504.62
2018-04-07T10:54:44.231Z,100503.91
2018-04-07T10:57:11.848Z,100507.30
2018-04-07T10:59:39.446Z,100505.64
2018-04-07T11:02:07.026Z,100501.80
2018-04-07T11:04:34.607Z,100502.42
2018-04-07T11:07:02.176Z,100498.16
2018-04-07T11:09:29.802Z,100504.69
2018-04-07T11:11:57.380Z,100500.63
2018-04-07T11:14:24.988Z,100491.78
2018-04-07T11:16:52.578Z,100484.98
2018-04-07T11:19:20.145Z,100484.69
2018-04-07T11:21:48.029Z,100486.05
2018-04-07T11:24:15.592Z,100488.15
2018-04-07T11:26:43.155Z,100484.87
2018-04-07T11:29:10.823Z,100477.03
2018-04-07T11:31:38.401Z,100474.81
2018-04-07T11:34:06.028Z,100475.30
2018-04-07T11:36:33.600Z,100478.14
2018-04-07T11:39:01.159Z,100476.84
2018-04-07T11:41:30.961Z,100471.86
2018-04-07T11:43:58.527Z,100461.66
2018-04-07T11:46:26.224Z,100468.23
2018-04-07T11:48:53.794Z,100467.52
2018-04-07T11:51:21.363Z,100467.70
2018-04-07T11:53:48.939Z,100461.30
2018-04-07T11:56:16.575Z,100460.98
2018-04-07T11:58:44.258Z,100461.66
2018-04-07T12:01:11.890Z,100461.95
2018-04-07T12:03:39.526Z,100460.44
2018-04-07T12:06:07.158Z,100459.38
2018-04-07T12:08:34.817Z,100451.58
2018-04-07T12:11:02.456Z,100461.47
2018-04-07T12:13:30.030Z,100453.98
2018-04-07T12:15:57.697Z,100452.94
2018-04-07T12:18:25.274Z,100448.64
2018-04-07T12:20:52.907Z,100444.22
2018-04-07T12:23:20.530Z,100438.33
2018-04-07T12:25:48.099Z,100433.28
2018-04-07T12:28:15.670Z,100430.56
2018-04-07T12:30:43.251Z,100424.94
2018-04-07T12:33:10.824Z,100421.98
2018-04-07T12:35:38.438Z,100422.85
2018-04-07T12:38:06.018Z,100417.80
2018-04-07T12:40:33.671Z,100411.35
2018-04-07T12:43:01.248Z,100420.83
2018-04-07T12:45:28.918Z,100406.66
2018-04-07T12:47:56.540Z,100403.83
2018-04-07T12:50:24.110Z,100402.30
2018-04-07T12:52:51.693Z,100392.83
2018-04-07T12:55:19.349Z,100396.43
2018-04-07T12:57:46.981Z,100390.86
2018-04-07T13:00:14.606Z,100385.77
2018-04-07T13:02:42.217Z,100387.52
2018-04-07T13:05:09.786Z,100389.16
2018-04-07T13:07:37.378Z,100390.33
2018-04-07T13:10:04.941Z,100378.77
2018-04-07T13:12:32.646Z,100383.66
2018-04-07T13:15:00.253Z,100392.26
2018-04-07T13:17:27.866Z,100384.09
2018-04-07T13:19:55.465Z,100390.66
2018-04-07T13:22:23.076Z,100379.66
2018-04-07T13:24:50.716Z,100371.01
2018-04-07T13:27:18.346Z,100375.11
2018-04-07T13:29:45.896Z,100377.11
2018-04-07T13:32:13.534Z,100383.94
2018-04-07T13:34:41.083Z,100387.03
2018-04-07T13:37:08.759Z,100389.37
2018-04-07T13:39:36.391Z,100383.96
2018-04-07T13:42:03.957Z,100384.39
2018-04-07T13:44:31.540Z,100385.52
2018-04-07T13:46:59.171Z,100389.55
2018-04-07T13:49:26.786Z,100384.19
2018-04-07T13:51:54.418Z,100384.47
2018-04-07T13:54:21.982Z,100381.34
2018-04-07T13:56:49.535Z,100375.03
2018-04-07T13:59:17.154Z,100376.67
2018-04-07T14:01:44.846Z,100383.48
2018-04-07T14:04:12.881Z,100381.94
2018-04-07T14:06:40.530Z,100377.23
2018-04-07T14:09:08.191Z,100379.12
2018-04-07T14:11:35.772Z,100376.17
2018-04-07T14:14:03.443Z,100379.27
2018-04-07T14:16:31.001Z,100382.78
2018-04-07T14:18:58.567Z,100382.36
2018-04-07T14:21:26.150Z,100384.47
2018-04-07T14:23:53.783Z,100382.18
2018-04-07T14:26:21.458Z,100391.12
2018-04-07T14:28:49.098Z,100382.41
2018-04-07T14:31:16.667Z,100389.77
2018-04-07T14:33:44.302Z,100384.70
2018-04-07T14:36:11.874Z,100377.95
2018-04-07T14:38:39.470Z,100375.95
2018-04-07T14:41:07.035Z,100372.83
2018-04-07T14:43:34.706Z,100378.41
2018-04-07T14:46:02.286Z,100373.50
2018-04-07T14:48:29.946Z,100378.20
2018-04-07T14:50:57.578Z,100377.65
2018-04-07T14:53:25.211Z,100378.17
2018-04-07T14:55:52.839Z,100371.86
2018-04-07T14:58:20.415Z,100381.70
2018-04-07T15:00:48.003Z,100379.83
2018-04-07T15:03:15.697Z,100377.84
2018-04-07T15:05:43.286Z,100375.95
2018-04-07T15:08:10.854Z,100377.89
2018-04-07T15:10:38.431Z,100379.77
2018-04-07T15:13:06.071Z,100381.04
2018-04-07T15:15:33.638Z,100377.22
2018-04-07T15:18:01.223Z,100374.60
2018-04-07T15:20:28.858Z,100375.57
2018-04-07T15:22:56.539Z,100381.63
2018-04-07T15:25:24.197Z,100376.56
2018-04-07T15:27:51.774Z,100378.34
2018-04-07T15:30:19.348Z,100378.91
2018-04-07T15:32:46.985Z,100378.84
2018-04-07T15:35:14.569Z,100382.33
2018-04-07T15:37:42.134Z,100385.51
2018-04-07T15:40:09.755Z,100381.48
2018-04-07T15:42:37.380Z,100383.25
2018-04-07T15:45:04.954Z,100376.78
2018-04-07T15:47:32.560Z,100387.03
2018-04-07T15:50:00.244Z,100387.05
2018-04-07T15:52:27.943Z,100388.52
2018-04-07T15:54:55.534Z,100379.34
2018-04-07T15:57:23.138Z,100385.53
2018-04-07T15:59:50.758Z,100383.55
2018-04-07T16:02:18.429Z,100385.72
2018-04-07T16:04:46.082Z,100389.55
2018-04-07T16:07:13.726Z,100396.84
2018-04-07T16:09:41.303Z,100392.18
2018-04-07T16:12:09.021Z,100390.26
2018-04-07T16:14:36.594Z,100392.89
2018-04-07T16:17:04.285Z,100401.09
2018-04-07T16:19:31.889Z,100393.91
2018-04-07T16:21:59.532Z,100397.69
2018-04-07T16:24:27.113Z,100396.70
2018-04-07T16:26:54.677Z,100404.38
2018-04-07T16:29:22.310Z,100404.59
2018-04-07T16:31:49.886Z,100403.64
2018-04-07T16:34:17.507Z,100410.55
2018-04-07T16:36:45.077Z,100414.04
2018-04-07T16:39:12.638Z,100419.78
2018-04-07T16:41:40.215Z,100423.23
2018-04-07T16:44:07.880Z,100427.20
2018-04-07T16:46:35.541Z,100423.22
2018-04-07T16:49:03.174Z,100423.22
2018-04-07T16:51:30.793Z,100430.20
2018-04-07T16:53:58.380Z,100436.63
2018-04-07T16:56:26.002Z,100434.44
2018-04-07T16:58:53.574Z,100435.30
2018-04-07T17:01:21.146Z,100435.59
2018-04-07T17:03:48.833Z,100438.75
2018-04-07T17:06:16.449Z,100433.82
2018-04-07T17:08:44.080Z,100438.66
2018-04-07T17:11:11.714Z,100437.95
2018-04-07T17:13:39.277Z,100444.52
2018-04-07T17:16:06.859Z,100444.37
2018-04-07T17:18:34.479Z,100446.99
2018-04-07T17:21:02.137Z,100446.69
2018-04-07T17:23:29.808Z,100451.09
2018-04-07T17:25:57.443Z,100456.31
2018-04-07T17:28:25.032Z,100462.46
2018-04-07T17:30:52.604Z,100459.02
2018-04-07T17:33:20.174Z,100459.32
2018-04-07T17:35:47.734Z,100462.59
2018-04-07T17:38:15.420Z,100465.31
2018-04-07T17:40:43.087Z,100471.57
2018-04-07T17:43:10.667Z,100480.87
2018-04-07T17:45:38.318Z,100481.35
2018-04-07T17:48:05.899Z,100484.48
2018-04-07T17:50:33.501Z,100491.34
2018-04-07T17:53:01.295Z,100491.84
2018-04-07T17:55:28.918Z,100497.56
2018-04-07T17:57:56.536Z,100495.23
2018-04-07T18:00:24.102Z,100504.92
2018-04-07T18:02:51.673Z,100512.02
2018-04-07T18:05:19.240Z,100523.25
2018-04-07T18:07:46.934Z,100527.97
2018-04-07T18:10:14.507Z,100525.83
2018-04-07T18:12:42.122Z,100536.42
2018-04-07T18:15:09.686Z,100537.08
2018-04-07T18:17:37.276Z,100536.69
2018-04-07T18:20:04.857Z,100544.60
2018-04-07T18:22:32.489Z,100543.59
2018-04-07T18:25:00.091Z,100540.06
2018-04-07T18:27:27.667Z,100548.75
2018-04-07T18:29:55.349Z,100546.13
2018-04-07T18:32:22.917Z,100549.65
2018-04-07T18:34:50.548Z,100550.26
2018-04-07T18:37:18.231Z,100551.52
2018-04-07T18:39:45.822Z,100556.95
2018-04-07T18:42:13.403Z,100561.49
2018-04-07T18:44:41.031Z,100569.63
2018-04-07T18:47:08.672Z,100568.59
2018-04-07T18:49:36.252Z,100573.07
2018-04-07T18:52:03.879Z,100576.33
2018-04-07T18:54:31.478Z,100582.75
2018-04-07T18:56:59.030Z,100581.37
2018-04-07T18:59:26.603Z,100584.45
2018-04-07T19:01:54.187Z,100592.38
2018-04-07T19:04:21.830Z,100589.26
2018-04-07T19:06:49.490Z,100592.34
2018-04-07T19:09:17.089Z,100593.22
2018-04-07T19:11:44.706Z,100600.93
2018-04-07T19:14:12.269Z,100601.62
2018-04-07T19:16:39.844Z,100602.70
2018-04-07T19:19:07.521Z,100598.41
2018-04-07T19:21:35.242Z,100598.45
2018-04-07T19:24:02.821Z,100593.91
2018-04-07T19:26:30.390Z,100601.66
2018-04-07T19:28:57.966Z,100600.66
2018-04-07T19:31:25.595Z,100591.91
2018-04-07T19:33:53.188Z,100597.55
2018-04-07T19:36:20.802Z,100597.73
2018-04-07T19:38:48.458Z,100602.76
2018-04-07T19:41:16.036Z,100602.81
2018-04-07T19:43:43.627Z,100608.98
2018-04-07T19:46:11.284Z,100605.80
2018-04-07T19:48:38.857Z,100613.09
2018-04-07T19:51:06.443Z,100611.78
2018-04-07T19:53:34.022Z,100614.75
2018-04-07T19:56:01.638Z,100610.39
2018-04-07T19:58:29.216Z,100617.04
2018-04-07T20:00:56.786Z,100621.37
2018-04-07T20:03:24.403Z,100632.35
2018-04-07T20:05:51.974Z,100628.83
2018-04-07T20:08:19.562Z,100626.55
2018-04-07T20:10:47.146Z,100628.34
2018-04-07T20:13:14.830Z,100628.08
2018-04-07T20:15:42.507Z,100628.26
2018-04-07T20:18:10.142Z,100625.89
2018-04-07T20:20:37.798Z,100632.14
2018-04-07T20:23:05.431Z,100634.50
2018-04-07T20:25:33.101Z,100628.44
2018-04-07T20:28:00.690Z,100629.44
2018-04-07T20:30:28.320Z,100637.54
2018-04-07T20:32:55.906Z,100639.81
2018-04-07T20:35:23.530Z,100643.84
2018-04-07T20:37:51.115Z,100645.69
2018-04-07T20:40:18.689Z,100647.05
2018-04-07T20:42:46.321Z,100643.30
2018-04-07T20:45:13.886Z,100648.55
2018-04-07T20:47:41.524Z,100651.88
2018-04-07T20:50:09.094Z,100661.05
2018-04-07T20:52:36.666Z,100661.27
2018-04-07T20:55:04.346Z,100655.58
2018-04-07T20:57:31.895Z,100662.14
2018-04-07T20:59:59.466Z,100659.21
2018-04-07T21:02:27.044Z,100662.30
2018-04-07T21:04:54.676Z,100658.08
2018-04-07T21:07:22.249Z,100661.71
2018-04-07T21:09:49.879Z,100660.34
2018-04-07T21:12:17.479Z,100660.93
2018-04-07T21:14:45.134Z,100664.27
2018-04-07T21:17:12.698Z,100662.34
2018-04-07T21:19:40.330Z,100665.86
2018-04-07T21:22:07.908Z,100667.75
2018-04-07T21:24:35.586Z,100671.37
2018-04-07T21:27:03.211Z,100666.96
2018-04-07T21:29:30.786Z,100670.58
2018-04-07T21:31:58.362Z,100660.55
2018-04-07T21:34:25.935Z,100660.47
2018-04-07T21:36:53.578Z,100658.83
2018-04-07T21:39:21.202Z,100663.13
2018-04-07T21:41:48.896Z,100662.30
2018-04-07T21:44:16.507Z,100664.30
2018-04-07T21:46:44.127Z,100668.61
2018-04-07T21:49:11.683Z,100675.06
2018-04-07T21:51:39.246Z,100668.56
2018-04-07T21:54:06.823Z,100672.67
2018-04-07T21:56:34.399Z,100674.86
2018-04-07T21:59:02.038Z,100675.59
2018-04-07T22:01:29.663Z,100671.86
2018-04-07T22:03:57.295Z,100671.08
2018-04-07T22:06:24.869Z,100678.10
2018-04-07T22:08:52.465Z,100675.95
2018-04-07T22:11:20.156Z,100678.20
2018-04-07T22:13:47.765Z,100678.80
2018-04-07T22:16:15.403Z,100677.35
2018-04-07T22:18:42.966Z,100676.09
2018-04-07T22:21:10.538Z,100679.27
2018-04-07T22:23:38.116Z,100676.89
2018-04-07T22:26:05.722Z,100683.59
2018-04-07T22:28:33.290Z,100684.24
2018-04-07T22:31:00.904Z,100682.82
2018-04-07T22:33:28.622Z,100685.52
2018-04-07T22:35:56.223Z,100686.01
2018-04-07T22:38:23.893Z,100690.77
2018-04-07T22:40:51.470Z,100688.14
2018-04-07T22:43:19.065Z,100683.83
2018-04-07T22:45:46.642Z,100674.48
2018-04-07T22:48:14.216Z,100676.63
2018-04-07T22:50:41.902Z,100678.61
2018-04-07T22:53:09.464Z,100674.41
2018-04-07T22:55:37.029Z,100677.54
2018-04-07T22:58:04.677Z,100672.58
2018-04-07T23:00:32.304Z,100674.36
2018-04-07T23:02:59.934Z,100666.78
2018-04-07T23:05:27.498Z,100666.57
2018-04-07T23:07:55.155Z,100658.80
2018-04-07T23:10:22.775Z,100668.76
2018-04-07T23:12:50.365Z,100667.20
2018-04-07T23:15:17.933Z,100663.20
2018-04-07T23:17:45.549Z,100655.71
2018-04-07T23:20:13.122Z,100650.17
2018-04-07T23:22:40.682Z,100649.20
2018-04-07T23:25:08.298Z,100642.56
2018-04-07T23:27:35.857Z,100647.56
2018-04-07T23:30:03.422Z,100644.25
2018-04-07T23:32:31.002Z,100642.11
2018-04-07T23:34:58.627Z,100639.00
2018-04-07T23:37:26.250Z,100630.02
2018-04-07T23:39:53.806Z,100633.37
2018-04-07T23:42:21.490Z,100624.81
2018-04-07T23:44:49.049Z,100624.24
2018-04-07T23:47:16.610Z,100634.05
2018-04-07T23:49:44.238Z,100631.24
2018-04-07T23:52:11.798Z,100628.20
2018-04-07T23:54:39.373Z,100632.11
2018-04-07T23:57:06.990Z,100633.78
2018-04-07T23:59:34.597Z,100637.06
